Slayton, MN

9:12 PM CDT on June 28, 2017 (GMT -0500)
Slayton

Weather History for KDVP - February, 2013

Change the Weather History Date:

Tuesday, February 5, 2013

  Actual Average (KOTG) Record (KOTG)
Temperature  
Mean Temperature 24 °F -  
Max Temperature 33 °F 26 °F 55 °F (2005)
Min Temperature 15 °F 10 °F -22 °F (1988)
Degree Days  
Heating Degree Days 40    
Moisture  
Dew Point 22 °F    
Average Humidity 89    
Maximum Humidity 97    
Minimum Humidity 82    
Precipitation  
Precipitation 0.00 in - - ()
Sea Level Pressure  
Sea Level Pressure 29.87 in    
Wind  
Wind Speed 16 mph (WNW)    
Max Wind Speed 25 mph    
Max Gust Speed 31 mph    
Visibility 9 miles    
Events      
Averages and records for this station are not official NWS values.
T = Trace of Precipitation, MM = Missing Value Source: NWS Daily Summary

Daily Weather History Graph

Daily Weather History Graph

Search for Another Location

Airport or City:

Trip Planner

Search our weather history database for the weather conditions in past years. The results will help you decide how hot, cold, wet, or windy it might be!

Date:

Astronomy

Feb. 05, 2013 Rise Set
Actual Time 7:35 AM CST 5:39 PM CST
Civil Twilight 7:05 AM CST 6:09 PM CST
Nautical Twilight 6:30 AM CST 6:44 PM CST
Astronomical Twilight 5:57 AM CST 7:17 PM CST
Moon 3:22 AM CST (2/5) 12:53 PM CST (2/5)
Length of Visible Light 11h 04m
Length of Day
10h 04m
Waning Crescent, 26% of the Moon is Illuminated
Feb 5
Waning Crescent
Feb 10
New
Feb 17
First Quarter
Feb 25
Full
Mar 4
Last Quarter

Hourly Weather History & Observations

Time (CST) Temp. Windchill Dew Point Humidity Pressure Visibility Wind Dir Wind Speed Gust Speed Precip Events Conditions
12:15 AM 22.1 °F 6.4 °F 19.4 °F 89% 29.70 in 10.0 mi SW 21.9 mph 27.6 mph N/A   Clear
12:35 AM 22.5 °F 5.9 °F 19.9 °F 90% 29.69 in 10.0 mi SW 25.3 mph 31.1 mph N/A   Clear
12:55 AM 22.1 °F 5.4 °F 19.9 °F 91% 29.68 in 10.0 mi SW 25.3 mph 31.1 mph N/A   Scattered Clouds
1:16 AM 22.3 °F 5.9 °F 20.1 °F 91% 29.67 in 10.0 mi SW 24.2 mph 28.8 mph N/A   Scattered Clouds
1:35 AM 22.6 °F 7.5 °F 20.3 °F 91% 29.68 in 10.0 mi SW 20.7 mph 28.8 mph N/A   Mostly Cloudy
1:55 AM 23.4 °F 7.7 °F 20.8 °F 90% 29.68 in 10.0 mi SW 23.0 mph 28.8 mph N/A   Scattered Clouds
2:15 AM 23.5 °F 8.7 °F 21.2 °F 91% 29.68 in 10.0 mi WSW 20.7 mph 24.2 mph N/A   Clear
2:35 AM 24.1 °F 9.8 °F 21.6 °F 90% 29.68 in 10.0 mi WSW 19.6 mph 26.5 mph N/A   Clear
2:55 AM 25.2 °F 10.4 °F 22.3 °F 89% 29.67 in 10.0 mi WSW 21.9 mph - N/A   Scattered Clouds
3:15 AM 25.3 °F 11.4 °F 22.3 °F 88% 29.67 in 10.0 mi WSW 19.6 mph - N/A   Mostly Cloudy
3:34 AM 26.4 °F 14.0 °F 23.0 °F 87% 29.66 in 10.0 mi WSW 16.1 mph - N/A   Mostly Cloudy
3:55 AM 26.6 °F 14.7 °F 23.0 °F 86% 29.66 in 10.0 mi WSW 15.0 mph - N/A   Mostly Cloudy
4:15 AM 26.4 °F 14.5 °F 23.0 °F 87% 29.68 in 10.0 mi West 15.0 mph - N/A   Overcast
4:35 AM 26.2 °F 15.2 °F 23.0 °F 88% 29.69 in 10.0 mi West 12.7 mph - N/A   Overcast
4:55 AM 26.6 °F 15.2 °F 23.4 °F 88% 29.70 in 10.0 mi West 13.8 mph - N/A   Overcast
5:15 AM 26.2 °F 15.2 °F 23.0 °F 88% 29.69 in 10.0 mi West 12.7 mph - N/A   Overcast
5:35 AM 26.6 °F 16.2 °F 23.4 °F 88% 29.70 in 10.0 mi West 11.5 mph - N/A   Overcast
5:55 AM 26.1 °F 14.0 °F 23.0 °F 88% 29.71 in 10.0 mi West 15.0 mph - N/A   Overcast
6:15 AM 25.3 °F 14.7 °F 22.6 °F 89% 29.71 in 10.0 mi West 11.5 mph - N/A   Scattered Clouds
6:35 AM 25.5 °F 14.3 °F 23.5 °F 92% 29.71 in 10.0 mi West 12.7 mph - N/A   Clear
6:55 AM 25.3 °F 15.3 °F 23.5 °F 93% 29.73 in 10.0 mi West 10.4 mph - N/A   Scattered Clouds
7:16 AM 26.6 °F 19.1 °F 24.6 °F 92% 29.73 in 10.0 mi WNW 6.9 mph - N/A   Mostly Cloudy
7:35 AM 28.8 °F 19.0 °F 25.7 °F 88% 29.75 in 10.0 mi WNW 11.5 mph - N/A   Overcast
7:55 AM 29.3 °F 19.1 °F 26.6 °F 90% 29.76 in 10.0 mi WNW 12.7 mph - N/A   Overcast
8:15 AM 29.8 °F 20.3 °F 27.0 °F 89% 29.77 in 10.0 mi WNW 11.5 mph - N/A   Mostly Cloudy
8:55 AM 30.9 °F 20.7 °F 27.5 °F 87% 29.80 in 10.0 mi WNW 13.8 mph - N/A   Overcast
9:15 AM 31.5 °F 20.9 °F 28.0 °F 87% 29.82 in 10.0 mi WNW 15.0 mph - N/A   Mostly Cloudy
9:35 AM 31.8 °F 21.4 °F 28.2 °F 87% 29.83 in 10.0 mi WNW 15.0 mph - N/A   Overcast
10:15 AM 32.4 °F 21.3 °F 29.3 °F 88% 29.86 in 10.0 mi NW 17.3 mph 21.9 mph N/A   Overcast
10:35 AM 32.2 °F 21.4 °F 29.1 °F 88% 29.87 in 10.0 mi NW 16.1 mph - N/A   Overcast
10:55 AM 32.9 °F 22.0 °F 29.3 °F 87% 29.88 in 10.0 mi NW 17.3 mph 24.2 mph N/A   Overcast
11:15 AM 33.3 °F 22.8 °F 29.3 °F 85% 29.89 in 10.0 mi WNW 16.1 mph - N/A   Overcast
11:35 AM 33.8 °F 22.8 °F 28.9 °F 82% 29.90 in 10.0 mi NW 18.4 mph 23.0 mph N/A   Overcast
11:55 AM 33.4 °F 23.1 °F 29.3 °F 85% 29.90 in 10.0 mi NNW 16.1 mph - N/A   Overcast
12:15 PM 30.4 °F 19.1 °F 28.0 °F 91% 29.91 in 3.0 mi North 16.1 mph - N/A   Overcast
12:35 PM 28.0 °F 16.1 °F 27.0 °F 96% 29.92 in 2.0 mi NNW 16.1 mph 20.7 mph N/A   Overcast
12:55 PM 26.6 °F 14.3 °F 25.7 °F 96% 29.93 in 2.0 mi NNW 16.1 mph 20.7 mph N/A   Overcast
1:15 PM 26.2 °F 15.2 °F 25.5 °F 97% 29.95 in 3.0 mi NNW 12.7 mph 23.0 mph N/A   Overcast
1:34 PM 26.4 °F 16.0 °F 24.8 °F 94% 29.95 in 4.0 mi NW 11.5 mph - N/A   Overcast
1:55 PM 27.0 °F 14.3 °F 25.3 °F 94% 29.95 in 4.0 mi NW 17.3 mph - N/A   Overcast
2:15 PM 28.4 °F 17.0 °F 26.4 °F 92% 29.95 in 4.0 mi NW 15.0 mph - N/A   Overcast
2:35 PM 27.5 °F 15.9 °F 25.2 °F 91% 29.96 in 5.0 mi NW 15.0 mph - N/A   Overcast
2:55 PM 28.4 °F 18.0 °F 24.1 °F 84% 29.96 in 7.0 mi NNW 12.7 mph - N/A   Overcast
3:16 PM 27.9 °F 16.3 °F 23.4 °F 83% 29.96 in 7.0 mi North 15.0 mph - N/A   Mostly Cloudy
3:35 PM 27.3 °F 17.7 °F 22.6 °F 83% 29.98 in 7.0 mi NW 10.4 mph - N/A   Scattered Clouds
3:55 PM 27.7 °F 18.2 °F 23.0 °F 83% 29.98 in 7.0 mi NNW 10.4 mph - N/A   Scattered Clouds
4:15 PM 26.6 °F 16.8 °F 22.3 °F 84% 29.99 in 7.0 mi NNW 10.4 mph - N/A   Mostly Cloudy
4:35 PM 25.7 °F 15.1 °F 21.9 °F 86% 29.99 in 7.0 mi NNW 11.5 mph - N/A   Overcast
4:55 PM 25.7 °F 16.4 °F 21.7 °F 85% 29.99 in 7.0 mi NNW 9.2 mph - N/A   Overcast
5:15 PM 24.6 °F 15.1 °F 20.8 °F 86% 29.99 in 7.0 mi NNW 9.2 mph - N/A   Mostly Cloudy
5:35 PM 23.7 °F 14.0 °F 20.3 °F 87% 30.00 in 7.0 mi North 9.2 mph - N/A   Overcast
5:55 PM 23.0 °F 13.1 °F 19.6 °F 87% 30.01 in 10.0 mi NNW 9.2 mph - N/A   Overcast
6:15 PM 22.5 °F 16.3 °F 19.0 °F 87% 30.02 in 10.0 mi NNW 4.6 mph - N/A   Overcast
6:34 PM 22.5 °F 15.1 °F 19.0 °F 87% 30.02 in 10.0 mi North 5.8 mph - N/A   Overcast
6:55 PM 21.9 °F 14.5 °F 18.5 °F 87% 30.02 in 10.0 mi NNW 5.8 mph - N/A   Overcast
7:15 PM 21.2 °F 14.9 °F 18.1 °F 88% 30.02 in 10.0 mi North 4.6 mph - N/A   Overcast
7:35 PM 20.7 °F 15.8 °F 17.6 °F 88% 30.03 in 10.0 mi NNW 3.5 mph - N/A   Overcast
7:55 PM 20.3 °F - 18.0 °F 91% 30.03 in 10.0 mi Calm Calm - N/A   Mostly Cloudy
8:15 PM 20.5 °F - 18.1 °F 91% 30.03 in 10.0 mi Calm Calm - N/A   Overcast
8:35 PM 19.6 °F 14.5 °F 17.6 °F 92% 30.03 in 10.0 mi NE 3.5 mph - N/A   Scattered Clouds
8:55 PM 19.0 °F 12.3 °F 17.2 °F 93% 30.03 in 7.0 mi NNE 4.6 mph - N/A   Clear
9:15 PM 18.3 °F - 16.7 °F 93% 30.04 in 10.0 mi Calm Calm - N/A   Clear
9:35 PM 17.6 °F - 16.2 °F 94% 30.04 in 10.0 mi Calm Calm - N/A   Clear
9:55 PM 17.1 °F - 15.6 °F 94% 30.04 in 10.0 mi Calm Calm - N/A   Clear
10:15 PM 17.1 °F 8.7 °F 15.1 °F 92% 30.05 in 10.0 mi SSE 5.8 mph - N/A   Clear
10:35 PM 16.7 °F 7.2 °F 15.1 °F 93% 30.05 in 10.0 mi SSE 6.9 mph - N/A   Clear
10:55 PM 16.7 °F 7.2 °F 15.4 °F 95% 30.04 in 10.0 mi South 6.9 mph - N/A   Clear
11:15 PM 16.5 °F 11.0 °F 14.9 °F 93% 30.04 in 10.0 mi SSE 3.5 mph - N/A   Clear
11:34 PM 16.5 °F 8.1 °F 15.1 °F 94% 30.04 in 10.0 mi South 5.8 mph - N/A   Clear
11:55 PM 15.8 °F 10.2 °F 14.7 °F 95% 30.04 in 7.0 mi SSE 3.5 mph - N/A   Clear